Pegasus J — V2CF5 — position and weather

sailwx.info

Track history (hours):
 
Tides and Currents Weather Stations Pressure Air Temp Water Temp Dewpoint Dewpoint Depression Visibility Wind Speed Wind Dir Waves Ship Positions

Pegasus J

Last reported at 2018-Apr-15 05:05 UTC. Time now 2018-Apr-20 12:48 UTC.
Position N 25°22' W 079°40'.

Length 140 m; draft 6.9 m.

Type: Ship. MMSI: 304122000.

Date/timePositionNaut miles runAvg speedWind from/ knotsBaromVisibWave heightAir tempDewpointWater temp
2018-Apr-15 05:05N 25°22' W 079°40'213.2
2018-Apr-15 04:57N 25°24' W 079°40'613.2
2018-Apr-15 04:30N 25°30' W 079°41'713.2
2018-Apr-15 04:00N 25°36' W 079°41'612.3
2018-Apr-15 03:29N 25°43' W 079°41'510.7
2018-Apr-15 03:00N 25°48' W 079°42'611.3
2018-Apr-15 02:30N 25°53' W 079°44'613.1
2018-Apr-15 02:00N 25°57' W 079°50'713.6
2018-Apr-15 01:30N 26°01' W 079°56'714.0
2018-Apr-15 01:00N 26°06' W 080°02'4 8.7
2018-Apr-15 00:30N 26°05' W 080°07'1 1.6
2018-Apr-14 23:58N 26°04' W 080°07'0 0.0
2018-Apr-14 23:28N 26°04' W 080°07'0 0.0
2018-Apr-14 22:58N 26°04' W 080°07'0 0.0
2018-Apr-14 22:28N 26°04' W 080°07'0 0.0
2018-Apr-14 21:58N 26°04' W 080°07'0 0.0
2018-Apr-14 21:28N 26°04' W 080°07'0 0.0
2018-Apr-14 20:58N 26°04' W 080°07'0 0.0
2018-Apr-14 20:28N 26°04' W 080°07'0 0.0
2018-Apr-14 19:58N 26°04' W 080°07'0 0.0
2018-Apr-14 19:28N 26°04' W 080°07'0 0.0
2018-Apr-14 18:58N 26°04' W 080°07'0 0.0
2018-Apr-14 18:28N 26°04' W 080°07'0 0.0
2018-Apr-14 17:58N 26°04' W 080°07'0 0.0
2018-Apr-14 17:28N 26°04' W 080°07'0 0.0
2018-Apr-14 16:58N 26°04' W 080°07'0 0.0
2018-Apr-14 16:28N 26°04' W 080°07'0 0.0
2018-Apr-14 15:58N 26°04' W 080°07'0 0.0
2018-Apr-14 15:25N 26°04' W 080°07'0 0.0
2018-Apr-14 14:55N 26°04' W 080°07'0 0.0
2018-Apr-14 14:28N 26°04' W 080°07'0 0.0
2018-Apr-14 14:00N 26°04' W 080°07'1 1.7
2018-Apr-14 13:30N 26°05' W 080°07'4 8.2
2018-Apr-14 13:00N 26°06' W 080°02'2 3.9
2018-Apr-14 12:31N 26°07' W 080°01'4 7.3
2018-Apr-14 12:00N 26°11' W 079°59'4 7.7
2018-Apr-14 11:29N 26°14' W 079°57'4 7.7
2018-Apr-14 11:00N 26°17' W 079°55'4 7.7
2018-Apr-14 10:30N 26°21' W 079°53'510.5
2018-Apr-14 10:00N 26°26' W 079°51'2313.9
2018-Apr-14 08:22N 26°48' W 079°48'513.3
2018-Apr-14 07:59N 26°53' W 079°48'613.1
2018-Apr-14 07:30N 26°60' W 079°48'  
2018-Apr-09 23:19N 27°11' W 079°48'819.9
2018-Apr-09 22:56N 27°03' W 079°48'2920.7
2018-Apr-09 21:31N 26°34' W 079°48'020.4
2018-Apr-09 21:30N 26°33' W 079°48'919.3
2018-Apr-09 21:00N 26°25' W 079°52'1019.8
2018-Apr-09 20:30N 26°16' W 079°58'1019.4
2018-Apr-09 20:00N 26°08' W 080°03'5 9.3
2018-Apr-09 19:30N 26°05' W 080°07'1 1.6
2018-Apr-09 18:59N 26°04' W 080°07'0 0.0
2018-Apr-09 18:29N 26°04' W 080°07'0 0.0
2018-Apr-09 17:59N 26°04' W 080°07'0 0.0
2018-Apr-09 17:29N 26°04' W 080°07'0 0.0
2018-Apr-09 16:59N 26°04' W 080°07'0 0.0
2018-Apr-09 16:23N 26°04' W 080°07'0 0.0
2018-Apr-09 15:59N 26°04' W 080°07'0 0.0
2018-Apr-09 15:29N 26°04' W 080°07'0 0.0
2018-Apr-09 14:59N 26°04' W 080°07'0 0.0
2018-Apr-09 14:29N 26°04' W 080°07'0 0.2
2018-Apr-09 14:00N 26°04' W 080°07'0 0.2
2018-Apr-09 13:30N 26°04' W 080°07'0 0.0
2018-Apr-09 13:01N 26°04' W 080°07'1 1.6
2018-Apr-09 12:30N 26°05' W 080°07'4 8.4
2018-Apr-09 12:00N 26°06' W 080°02'2 4.9
2018-Apr-09 11:30N 26°05' W 079°60'2 4.8
2018-Apr-09 11:00N 26°02' W 079°60'3 6.1
2018-Apr-09 10:30N 25°60' W 079°58'5 9.4
2018-Apr-09 10:00N 25°58' W 079°53'5 9.2
2018-Apr-09 09:30N 25°56' W 079°49'1 1.7
2018-Apr-09 09:00N 25°56' W 079°48'3 5.1
2018-Apr-09 08:30N 25°57' W 079°50'611.0
2018-Apr-09 08:01N 25°53' W 079°46'611.9
2018-Apr-09 07:30N 25°48' W 079°42'612.3
2018-Apr-09 07:00N 25°42' W 079°41'713.4
2018-Apr-09 06:30N 25°35' W 079°41'1018.0
2018-Apr-09 05:59N 25°26' W 079°40'26612.6
2018-Apr-08 08:48N 23°02' W 083°46'514.6
2018-Apr-08 08:29N 22°60' W 083°51'  
Track history (hours):
 
Tides and Currents Weather Stations Pressure Air Temp Water Temp Dewpoint Dewpoint Depression Visibility Wind Speed Wind Dir Waves Ship Positions

Pegasus J

Last reported at 2018-Apr-15 05:05 UTC. Time now 2018-Apr-20 12:48 UTC.
Position N 25°22' W 079°40'.

Length 140 m; draft 6.9 m.

Type: Ship. MMSI: 304122000.

Date/timePositionNaut miles runAvg speedWind from/ knotsBaromVisibWave heightAir tempDewpointWater temp
2018-Apr-15 05:05N 25°22' W 079°40'213.2
2018-Apr-15 04:57N 25°24' W 079°40'613.2
2018-Apr-15 04:30N 25°30' W 079°41'713.2
2018-Apr-15 04:00N 25°36' W 079°41'612.3
2018-Apr-15 03:29N 25°43' W 079°41'510.7
2018-Apr-15 03:00N 25°48' W 079°42'611.3
2018-Apr-15 02:30N 25°53' W 079°44'613.1
2018-Apr-15 02:00N 25°57' W 079°50'713.6
2018-Apr-15 01:30N 26°01' W 079°56'714.0
2018-Apr-15 01:00N 26°06' W 080°02'4 8.7
2018-Apr-15 00:30N 26°05' W 080°07'1 1.6
2018-Apr-14 23:58N 26°04' W 080°07'0 0.0
2018-Apr-14 23:28N 26°04' W 080°07'0 0.0
2018-Apr-14 22:58N 26°04' W 080°07'0 0.0
2018-Apr-14 22:28N 26°04' W 080°07'0 0.0
2018-Apr-14 21:58N 26°04' W 080°07'0 0.0
2018-Apr-14 21:28N 26°04' W 080°07'0 0.0
2018-Apr-14 20:58N 26°04' W 080°07'0 0.0
2018-Apr-14 20:28N 26°04' W 080°07'0 0.0
2018-Apr-14 19:58N 26°04' W 080°07'0 0.0
2018-Apr-14 19:28N 26°04' W 080°07'0 0.0
2018-Apr-14 18:58N 26°04' W 080°07'0 0.0
2018-Apr-14 18:28N 26°04' W 080°07'0 0.0
2018-Apr-14 17:58N 26°04' W 080°07'0 0.0
2018-Apr-14 17:28N 26°04' W 080°07'0 0.0
2018-Apr-14 16:58N 26°04' W 080°07'0 0.0
2018-Apr-14 16:28N 26°04' W 080°07'0 0.0
2018-Apr-14 15:58N 26°04' W 080°07'0 0.0
2018-Apr-14 15:25N 26°04' W 080°07'0 0.0
2018-Apr-14 14:55N 26°04' W 080°07'0 0.0
2018-Apr-14 14:28N 26°04' W 080°07'0 0.0
2018-Apr-14 14:00N 26°04' W 080°07'1 1.7
2018-Apr-14 13:30N 26°05' W 080°07'4 8.2
2018-Apr-14 13:00N 26°06' W 080°02'2 3.9
2018-Apr-14 12:31N 26°07' W 080°01'4 7.3
2018-Apr-14 12:00N 26°11' W 079°59'4 7.7
2018-Apr-14 11:29N 26°14' W 079°57'4 7.7
2018-Apr-14 11:00N 26°17' W 079°55'4 7.7
2018-Apr-14 10:30N 26°21' W 079°53'510.5
2018-Apr-14 10:00N 26°26' W 079°51'2313.9
2018-Apr-14 08:22N 26°48' W 079°48'513.3
2018-Apr-14 07:59N 26°53' W 079°48'613.1
2018-Apr-14 07:30N 26°60' W 079°48'  
2018-Apr-09 23:19N 27°11' W 079°48'819.9
2018-Apr-09 22:56N 27°03' W 079°48'2920.7
2018-Apr-09 21:31N 26°34' W 079°48'020.4
2018-Apr-09 21:30N 26°33' W 079°48'919.3
2018-Apr-09 21:00N 26°25' W 079°52'1019.8
2018-Apr-09 20:30N 26°16' W 079°58'1019.4
2018-Apr-09 20:00N 26°08' W 080°03'5 9.3
2018-Apr-09 19:30N 26°05' W 080°07'1 1.6
2018-Apr-09 18:59N 26°04' W 080°07'0 0.0
2018-Apr-09 18:29N 26°04' W 080°07'0 0.0
2018-Apr-09 17:59N 26°04' W 080°07'0 0.0
2018-Apr-09 17:29N 26°04' W 080°07'0 0.0
2018-Apr-09 16:59N 26°04' W 080°07'0 0.0
2018-Apr-09 16:23N 26°04' W 080°07'0 0.0
2018-Apr-09 15:59N 26°04' W 080°07'0 0.0
2018-Apr-09 15:29N 26°04' W 080°07'0 0.0
2018-Apr-09 14:59N 26°04' W 080°07'0 0.0
2018-Apr-09 14:29N 26°04' W 080°07'0 0.2
2018-Apr-09 14:00N 26°04' W 080°07'0 0.2
2018-Apr-09 13:30N 26°04' W 080°07'0 0.0
2018-Apr-09 13:01N 26°04' W 080°07'1 1.6
2018-Apr-09 12:30N 26°05' W 080°07'4 8.4
2018-Apr-09 12:00N 26°06' W 080°02'2 4.9
2018-Apr-09 11:30N 26°05' W 079°60'2 4.8
2018-Apr-09 11:00N 26°02' W 079°60'3 6.1
2018-Apr-09 10:30N 25°60' W 079°58'5 9.4
2018-Apr-09 10:00N 25°58' W 079°53'5 9.2
2018-Apr-09 09:30N 25°56' W 079°49'1 1.7
2018-Apr-09 09:00N 25°56' W 079°48'3 5.1
2018-Apr-09 08:30N 25°57' W 079°50'611.0
2018-Apr-09 08:01N 25°53' W 079°46'611.9
2018-Apr-09 07:30N 25°48' W 079°42'612.3
2018-Apr-09 07:00N 25°42' W 079°41'713.4
2018-Apr-09 06:30N 25°35' W 079°41'1018.0
2018-Apr-09 05:59N 25°26' W 079°40'26612.6
2018-Apr-08 08:48N 23°02' W 083°46'514.6
2018-Apr-08 08:29N 22°60' W 083°51'  

Dump ship's entire track history